CKN9 weather

Shilo (Flewin Field) Heliport
Shilo, Manitoba, Canada

Public forecast

Using degrees Celsius for public forecast. Weather courtesy of forecast.io.

METAR (pilot weather report)

Closest report is Brandon Municipal Airport, 14.4 nm (26.6 km) WNW. Retrieved 2019/05/21 17:00 UTC (3 minutes ago):

CYBR 211700Z 13012G20KT 070V140 15SM BKN250 19/M01 A3007 RMK CI6 SLP192 DENSITY ALT 2000FT

TAF (pilot weather forecast)

Closest forecast is Brandon Municipal Airport, 14.4 nm (26.6 km) WNW. Retrieved 2019/05/21 12:42 UTC (4 hours ago):

TAF CYBR 211138Z 2112/2124 05006KT P6SM FEW220 BECMG 2113/2115 08010KT FM211700 09015KT P6SM SCT170 RMK NXT FCST BY 211800Z